createdAt,value
2022-09-01T00:01:26.889Z,21.61
2022-09-01T00:04:15.436Z,21.59
2022-09-01T00:07:05.339Z,21.57
2022-09-01T00:10:12.108Z,21.52
2022-09-01T00:13:17.367Z,21.49
2022-09-01T00:15:47.449Z,21.43
2022-09-01T00:18:52.358Z,21.37
2022-09-01T00:24:47.585Z,21.46
2022-09-01T00:30:22.527Z,21.48
2022-09-01T00:33:09.134Z,21.51
2022-09-01T00:36:14.380Z,21.51
2022-09-01T00:38:44.226Z,21.47
2022-09-01T00:41:32.066Z,21.49
2022-09-01T00:44:04.929Z,21.51
2022-09-01T00:49:44.071Z,21.41
2022-09-01T00:56:04.155Z,21.36
2022-09-01T00:58:54.592Z,21.34
2022-09-01T01:01:41.472Z,21.29
2022-09-01T01:04:47.352Z,21.19
2022-09-01T01:07:53.640Z,21.12
2022-09-01T01:10:43.095Z,21.08
2022-09-01T01:16:58.618Z,21.10
2022-09-01T01:20:34.075Z,21.15
2022-09-01T01:23:42.087Z,21.21
2022-09-01T01:26:30.148Z,21.24
2022-09-01T01:29:02.552Z,21.24
2022-09-01T01:31:34.792Z,21.27
2022-09-01T01:37:13.538Z,21.33
2022-09-01T01:40:02.070Z,21.30
2022-09-01T01:42:51.926Z,21.33
2022-09-01T01:45:42.994Z,21.35
2022-09-01T01:48:50.677Z,21.38
2022-09-01T01:51:41.501Z,21.34
2022-09-01T01:58:11.156Z,21.29
2022-09-01T02:08:12.130Z,20.99
2022-09-01T02:10:59.564Z,21.00
2022-09-01T02:14:23.136Z,20.94
2022-09-01T02:17:11.457Z,20.94
2022-09-01T02:19:42.663Z,20.98
2022-09-01T02:22:29.867Z,21.01
2022-09-01T02:25:36.052Z,21.08
2022-09-01T02:28:24.139Z,21.14
2022-09-01T02:31:20.782Z,21.14
2022-09-01T02:34:45.683Z,21.11
2022-09-01T02:40:46.270Z,21.12
2022-09-01T02:43:33.611Z,21.11
2022-09-01T02:46:39.902Z,21.02
2022-09-01T02:49:29.161Z,20.99
2022-09-01T02:52:17.472Z,20.94
2022-09-01T02:55:27.131Z,20.89
2022-09-01T02:58:19.470Z,20.84
2022-09-01T03:04:36.038Z,20.77
2022-09-01T03:07:26.467Z,20.71
2022-09-01T03:13:39.647Z,20.60
2022-09-01T03:23:19.273Z,20.32
2022-09-01T03:26:07.527Z,20.32
2022-09-01T03:29:15.084Z,20.39
2022-09-01T03:31:45.671Z,20.45
2022-09-01T03:34:15.933Z,20.52
2022-09-01T03:37:25.239Z,20.60
2022-09-01T03:49:43.997Z,20.78
2022-09-01T03:52:31.801Z,20.83
2022-09-01T03:58:28.999Z,20.90
2022-09-01T04:01:01.491Z,20.82
2022-09-01T04:03:34.071Z,20.71
2022-09-01T04:06:08.132Z,20.56
2022-09-01T04:09:02.160Z,20.46
2022-09-01T04:12:26.352Z,20.33
2022-09-01T04:19:26.204Z,19.94
2022-09-01T04:25:58.840Z,20.07
2022-09-01T04:28:47.772Z,20.23
2022-09-01T04:31:55.552Z,20.42
2022-09-01T04:35:27.756Z,20.46
2022-09-01T04:38:34.164Z,20.44
2022-09-01T04:41:25.238Z,20.45
2022-09-01T04:44:50.335Z,20.48
2022-09-01T04:48:32.848Z,20.52
2022-09-01T04:51:21.632Z,20.60
2022-09-01T04:54:27.443Z,20.62
2022-09-01T04:56:57.134Z,20.68
2022-09-01T04:59:46.263Z,20.76
2022-09-01T05:02:17.426Z,20.80
2022-09-01T05:05:24.077Z,20.75
2022-09-01T05:08:32.682Z,20.63
2022-09-01T05:15:07.067Z,20.58
2022-09-01T05:17:37.198Z,20.65
2022-09-01T05:20:42.592Z,20.74
2022-09-01T05:23:13.569Z,20.69
2022-09-01T05:26:03.523Z,20.73
2022-09-01T05:28:54.378Z,20.79
2022-09-01T05:31:44.983Z,20.80
2022-09-01T05:34:35.972Z,20.79
2022-09-01T05:37:42.295Z,20.85
2022-09-01T05:43:59.328Z,20.86
2022-09-01T05:47:08.232Z,21.24
2022-09-01T05:49:39.047Z,21.74
2022-09-01T05:52:27.172Z,22.87
2022-09-01T05:55:33.878Z,23.67
2022-09-01T05:58:21.185Z,24.38
2022-09-01T06:01:33.006Z,25.11
2022-09-01T06:04:22.467Z,25.73
2022-09-01T06:11:17.420Z,27.00
2022-09-01T06:13:55.260Z,27.34
2022-09-01T06:17:02.116Z,27.56
2022-09-01T06:19:50.360Z,27.97
2022-09-01T06:22:20.175Z,28.25
2022-09-01T06:28:15.043Z,28.56
2022-09-01T06:34:33.945Z,28.13
2022-09-01T06:37:21.992Z,27.65
2022-09-01T06:39:53.060Z,27.37
2022-09-01T06:42:23.175Z,26.88
2022-09-01T06:45:00.080Z,26.56
2022-09-01T06:48:05.852Z,26.25
2022-09-01T06:51:17.342Z,25.82
2022-09-01T07:00:23.507Z,26.24
2022-09-01T07:07:53.411Z,26.36
2022-09-01T07:14:14.991Z,28.24
2022-09-01T07:17:23.628Z,29.10
2022-09-01T07:20:27.936Z,29.54
2022-09-01T07:27:07.516Z,30.46
2022-09-01T07:30:16.998Z,31.01
2022-09-01T07:36:32.466Z,30.91
2022-09-01T07:50:11.532Z,30.49
2022-09-01T07:53:03.941Z,30.97
2022-09-01T07:59:16.602Z,30.19
2022-09-01T08:02:24.111Z,30.54
2022-09-01T08:05:33.260Z,30.31
2022-09-01T08:08:58.166Z,30.06
2022-09-01T08:12:01.574Z,30.02
2022-09-01T08:17:51.135Z,29.83
2022-09-01T08:20:50.981Z,29.51
2022-09-01T08:23:39.603Z,29.27
2022-09-01T08:26:46.069Z,29.17
2022-09-01T08:29:52.727Z,28.82
2022-09-01T08:36:24.968Z,28.34
2022-09-01T08:39:35.249Z,28.86
2022-09-01T08:42:55.607Z,29.49
2022-09-01T08:45:30.650Z,29.94
2022-09-01T08:51:46.457Z,30.36
2022-09-01T08:54:41.976Z,30.84
2022-09-01T09:01:27.028Z,31.75
2022-09-01T09:08:06.660Z,31.79
2022-09-01T09:11:00.223Z,31.94
2022-09-01T09:16:35.840Z,31.78
2022-09-01T09:22:31.809Z,31.41
2022-09-01T09:25:56.874Z,31.38
2022-09-01T09:29:04.689Z,31.27
2022-09-01T09:32:51.678Z,30.94
2022-09-01T09:35:38.116Z,30.33
2022-09-01T09:38:28.259Z,29.49
2022-09-01T09:41:34.281Z,29.04
2022-09-01T09:45:03.743Z,28.82
2022-09-01T09:48:10.855Z,28.50
2022-09-01T09:51:21.120Z,28.06
2022-09-01T09:58:09.973Z,27.48
2022-09-01T10:01:47.291Z,27.22
2022-09-01T10:07:57.025Z,26.83
2022-09-01T10:11:04.130Z,26.72
2022-09-01T10:17:00.198Z,26.55
2022-09-01T10:19:35.864Z,26.53
2022-09-01T10:22:41.332Z,26.48
2022-09-01T10:25:37.403Z,26.05
2022-09-01T10:28:31.704Z,25.53
2022-09-01T10:31:37.602Z,25.10
2022-09-01T10:34:07.935Z,24.70
2022-09-01T10:42:31.227Z,24.29
2022-09-01T10:48:33.319Z,24.24
2022-09-01T10:52:03.320Z,24.28
2022-09-01T10:55:00.948Z,23.87
2022-09-01T10:57:56.159Z,23.26
2022-09-01T11:07:57.529Z,20.66
2022-09-01T11:11:20.243Z,20.34
2022-09-01T11:14:11.044Z,19.97
2022-09-01T11:17:18.181Z,19.34
2022-09-01T11:20:22.908Z,18.96
2022-09-01T11:23:12.591Z,18.82
2022-09-01T11:29:46.372Z,18.99
2022-09-01T11:32:36.207Z,18.88
2022-09-01T11:35:28.186Z,18.86
2022-09-01T11:38:17.485Z,18.81
2022-09-01T11:41:04.442Z,18.69
2022-09-01T11:43:54.349Z,18.65
2022-09-01T11:47:00.163Z,18.50
2022-09-01T11:53:18.423Z,18.47
2022-09-01T11:56:07.532Z,18.89
2022-09-01T11:58:54.267Z,19.57
2022-09-01T12:01:42.755Z,20.05
2022-09-01T12:04:50.891Z,20.47
2022-09-01T12:07:40.545Z,20.90
2022-09-01T12:10:40.356Z,21.20
2022-09-01T12:13:27.915Z,21.43
2022-09-01T12:17:11.607Z,21.36
2022-09-01T12:19:40.764Z,21.17
2022-09-01T12:25:50.719Z,20.91
2022-09-01T12:32:22.925Z,20.89
2022-09-01T12:35:28.077Z,20.71
2022-09-01T12:38:33.376Z,21.01
2022-09-01T12:45:16.414Z,21.21
2022-09-01T12:48:04.769Z,21.11
2022-09-01T12:51:05.583Z,20.96
2022-09-01T12:53:36.957Z,20.79
2022-09-01T12:56:48.886Z,20.61
2022-09-01T13:07:01.326Z,20.33
2022-09-01T13:09:30.374Z,20.41
2022-09-01T13:12:21.100Z,20.56
2022-09-01T13:14:50.193Z,20.59
2022-09-01T13:17:40.235Z,20.56
2022-09-01T13:23:51.807Z,20.59
2022-09-01T13:26:21.537Z,20.91
2022-09-01T13:29:27.075Z,21.23
2022-09-01T13:37:52.485Z,21.98
2022-09-01T13:40:40.549Z,22.16
2022-09-01T13:43:09.686Z,22.25
2022-09-01T13:45:40.425Z,22.21
2022-09-01T13:48:17.598Z,22.09
2022-09-01T13:51:23.147Z,21.93
2022-09-01T13:58:12.862Z,22.36
2022-09-01T14:00:44.685Z,22.47
2022-09-01T14:06:18.415Z,22.41
2022-09-01T14:09:06.089Z,22.04
2022-09-01T14:11:35.969Z,21.85
2022-09-01T14:18:06.363Z,20.66
2022-09-01T14:21:49.585Z,19.80
2022-09-01T14:24:38.803Z,18.23
2022-09-01T14:27:46.573Z,17.30
2022-09-01T14:33:40.978Z,16.91
2022-09-01T14:36:46.483Z,16.77
2022-09-01T14:39:15.822Z,16.62
2022-09-01T14:42:03.544Z,16.64
2022-09-01T14:47:25.472Z,16.68
2022-09-01T14:50:32.394Z,16.90
2022-09-01T14:56:11.095Z,17.52
2022-09-01T14:59:17.304Z,17.79
2022-09-01T15:02:06.517Z,17.98
2022-09-01T15:08:36.423Z,18.16
2022-09-01T15:11:24.138Z,18.26
2022-09-01T15:14:48.825Z,18.32
2022-09-01T15:17:56.523Z,18.27
2022-09-01T15:20:46.237Z,18.33
2022-09-01T15:23:51.530Z,18.32
2022-09-01T15:26:40.625Z,18.36
2022-09-01T15:29:46.767Z,18.38
2022-09-01T15:32:34.191Z,18.33
2022-09-01T15:41:35.639Z,18.40
2022-09-01T15:44:43.025Z,18.50
2022-09-01T15:47:12.534Z,18.66
2022-09-01T15:50:21.081Z,18.66
2022-09-01T15:52:54.898Z,18.60
2022-09-01T15:56:00.853Z,18.59
2022-09-01T15:58:39.171Z,18.76
2022-09-01T16:01:52.383Z,18.83
2022-09-01T16:04:57.407Z,18.89
2022-09-01T16:10:51.477Z,18.77
2022-09-01T16:14:15.971Z,18.80
2022-09-01T16:17:05.450Z,18.83
2022-09-01T16:20:12.532Z,18.84
2022-09-01T16:22:48.617Z,18.81
2022-09-01T16:29:02.936Z,18.86
2022-09-01T16:31:54.572Z,18.83
2022-09-01T16:34:46.603Z,18.89
2022-09-01T16:37:31.179Z,19.03
2022-09-01T16:40:44.033Z,19.10
2022-09-01T16:43:20.276Z,19.09
2022-09-01T16:46:10.726Z,19.17
2022-09-01T16:49:06.457Z,19.28
2022-09-01T16:51:47.163Z,19.40
2022-09-01T16:54:58.364Z,19.50
2022-09-01T16:57:59.289Z,19.59
2022-09-01T17:01:15.988Z,19.64
2022-09-01T17:04:09.829Z,19.72
2022-09-01T17:07:10.098Z,19.78
2022-09-01T17:09:42.342Z,19.81
2022-09-01T17:13:08.258Z,19.79
2022-09-01T17:23:19.523Z,19.59
2022-09-01T17:26:27.144Z,19.55
2022-09-01T17:29:38.511Z,19.48
2022-09-01T17:36:19.756Z,19.40
2022-09-01T17:39:33.556Z,19.39
2022-09-01T17:42:38.613Z,19.36
2022-09-01T17:45:30.279Z,19.34
2022-09-01T17:48:18.531Z,19.34
2022-09-01T17:58:15.225Z,19.30
2022-09-01T18:01:09.411Z,19.25
2022-09-01T18:04:41.191Z,19.26
2022-09-01T18:07:35.119Z,19.23
2022-09-01T18:10:29.250Z,19.09
2022-09-01T18:13:52.826Z,19.04
2022-09-01T18:17:02.260Z,18.96
2022-09-01T18:20:02.179Z,18.94
2022-09-01T18:22:56.142Z,18.91
2022-09-01T18:25:50.252Z,18.87
2022-09-01T18:28:19.535Z,18.84
2022-09-01T18:31:28.150Z,18.87
2022-09-01T18:34:22.515Z,18.82
2022-09-01T18:37:17.393Z,18.82
2022-09-01T18:43:42.552Z,18.85
2022-09-01T18:46:39.392Z,18.80
2022-09-01T18:50:07.318Z,18.81
2022-09-01T18:59:36.674Z,18.76
2022-09-01T19:03:01.856Z,18.72
2022-09-01T19:06:11.232Z,18.70
2022-09-01T19:09:53.341Z,18.69
2022-09-01T19:12:49.676Z,18.70
2022-09-01T19:15:39.813Z,18.73
2022-09-01T19:18:31.174Z,18.73
2022-09-01T19:21:23.229Z,18.69
2022-09-01T19:23:59.242Z,18.65
2022-09-01T19:26:47.069Z,18.54
2022-09-01T19:29:41.776Z,18.43
2022-09-01T19:35:56.569Z,18.36
2022-09-01T19:38:28.476Z,18.37
2022-09-01T19:51:45.351Z,18.29
2022-09-01T19:54:46.277Z,18.38
2022-09-01T19:57:39.768Z,18.29
2022-09-01T20:00:32.832Z,18.29
2022-09-01T20:03:08.784Z,18.36
2022-09-01T20:06:32.528Z,18.39
2022-09-01T20:10:14.792Z,18.26
2022-09-01T20:13:09.985Z,18.19
2022-09-01T20:16:21.303Z,18.18
2022-09-01T20:19:48.123Z,18.26
2022-09-01T20:25:21.895Z,18.15
2022-09-01T20:31:48.788Z,18.12
2022-09-01T20:34:25.909Z,18.13
2022-09-01T20:50:48.251Z,18.19
2022-09-01T20:54:02.209Z,18.12
2022-09-01T20:56:58.460Z,18.02
2022-09-01T21:02:50.267Z,18.08
2022-09-01T21:09:03.274Z,18.11
2022-09-01T21:24:33.327Z,18.11
2022-09-01T21:27:07.005Z,18.11
2022-09-01T21:33:18.860Z,18.09
2022-09-01T21:40:07.864Z,18.10
2022-09-01T21:43:31.710Z,18.08
2022-09-01T21:46:58.147Z,17.99
2022-09-01T21:50:21.422Z,17.99
2022-09-01T21:52:51.291Z,18.03
2022-09-01T21:56:00.491Z,18.06
2022-09-01T21:58:29.614Z,18.00
2022-09-01T22:01:01.041Z,17.94
2022-09-01T22:03:48.000Z,17.92
2022-09-01T22:13:59.474Z,17.82
2022-09-01T22:19:52.686Z,17.77
2022-09-01T22:23:16.344Z,17.71
2022-09-01T22:26:23.945Z,17.62
2022-09-01T22:29:11.654Z,17.56
2022-09-01T22:31:59.659Z,17.54
2022-09-01T22:34:37.149Z,17.54
2022-09-01T22:37:24.808Z,17.50
2022-09-01T22:40:15.643Z,17.48
2022-09-01T22:47:05.778Z,17.50
2022-09-01T22:50:12.137Z,17.47
2022-09-01T22:52:41.541Z,17.47
2022-09-01T22:55:51.327Z,17.52
2022-09-01T22:59:15.091Z,17.60
2022-09-01T23:02:21.319Z,17.68
2022-09-01T23:04:50.683Z,17.73
2022-09-01T23:11:03.412Z,17.79
2022-09-01T23:14:26.662Z,17.76
2022-09-01T23:17:14.594Z,17.77
2022-09-01T23:25:56.021Z,17.60
2022-09-01T23:32:45.191Z,17.43
2022-09-01T23:38:20.908Z,17.36
2022-09-01T23:41:08.985Z,17.33
2022-09-01T23:43:57.390Z,17.32
2022-09-01T23:46:29.931Z,17.30
2022-09-01T23:49:35.784Z,17.28
2022-09-01T23:52:59.580Z,17.20
2022-09-01T23:55:51.131Z,17.16
2022-09-01T23:58:56.740Z,17.11
